Terminal Aerodrome Forecast
Issued by NWS

Home | Current Version | Previous Version | Text Only | Print | Product List | Glossary On
Versions: 1 2 3 4 5 6 7 8 9 10 11 12 13 14 15 16 17 18
685
FTUS41 KGYX 262058 AAA
TAFHIE
TAF AMD
KHIE 262058Z 2621/2718 27007KT P6SM -SHRA BKN025
      TEMPO 2621/2623 2SM SHRA BR BKN015
     FM270200 VRB03KT P6SM BKN035
     FM270700 00000KT 2SM BR BKN002
     FM271200 19004KT P6SM BKN030=

USA.gov is the U.S. government's official web portal to all federal, state and local government web resources and services.